sensor_id;sensor_type;location;lat;lon;timestamp;P1;durP1;ratioP1;P2;durP2;ratioP2
55417;SDS011;41287;47.554;7.844;2023-07-13T00:02:06;3.25;;;1.80;;
55417;SDS011;41287;47.554;7.844;2023-07-13T00:04:31;5.10;;;1.80;;
55417;SDS011;41287;47.554;7.844;2023-07-13T00:06:56;6.53;;;1.92;;
55417;SDS011;41287;47.554;7.844;2023-07-13T00:09:22;4.10;;;1.83;;
55417;SDS011;41287;47.554;7.844;2023-07-13T00:11:52;5.28;;;2.10;;
55417;SDS011;41287;47.554;7.844;2023-07-13T00:14:19;5.63;;;2.13;;
55417;SDS011;41287;47.554;7.844;2023-07-13T00:16:46;4.22;;;2.00;;
55417;SDS011;41287;47.554;7.844;2023-07-13T00:19:12;4.32;;;1.50;;
55417;SDS011;41287;47.554;7.844;2023-07-13T00:21:41;6.25;;;1.65;;
55417;SDS011;41287;47.554;7.844;2023-07-13T00:24:07;5.47;;;2.40;;
55417;SDS011;41287;47.554;7.844;2023-07-13T00:26:37;5.45;;;2.10;;
55417;SDS011;41287;47.554;7.844;2023-07-13T00:29:03;4.30;;;1.80;;
55417;SDS011;41287;47.554;7.844;2023-07-13T00:31:29;3.63;;;1.92;;
55417;SDS011;41287;47.554;7.844;2023-07-13T00:33:58;2.15;;;1.40;;
55417;SDS011;41287;47.554;7.844;2023-07-13T00:36:25;3.80;;;1.80;;
55417;SDS011;41287;47.554;7.844;2023-07-13T00:38:52;5.93;;;1.90;;
55417;SDS011;41287;47.554;7.844;2023-07-13T00:41:18;5.20;;;1.88;;
55417;SDS011;41287;47.554;7.844;2023-07-13T00:43:43;2.53;;;1.75;;
55417;SDS011;41287;47.554;7.844;2023-07-13T00:46:20;4.88;;;1.88;;
55417;SDS011;41287;47.554;7.844;2023-07-13T00:48:48;4.82;;;1.90;;
55417;SDS011;41287;47.554;7.844;2023-07-13T00:51:16;3.13;;;1.63;;
55417;SDS011;41287;47.554;7.844;2023-07-13T00:53:46;5.53;;;1.65;;
55417;SDS011;41287;47.554;7.844;2023-07-13T00:56:12;5.13;;;1.83;;
55417;SDS011;41287;47.554;7.844;2023-07-13T00:58:38;3.15;;;1.67;;
55417;SDS011;41287;47.554;7.844;2023-07-13T01:01:03;6.25;;;2.17;;
55417;SDS011;41287;47.554;7.844;2023-07-13T01:03:29;7.15;;;2.35;;
55417;SDS011;41287;47.554;7.844;2023-07-13T01:05:57;7.05;;;2.78;;
55417;SDS011;41287;47.554;7.844;2023-07-13T01:08:23;8.85;;;2.50;;
55417;SDS011;41287;47.554;7.844;2023-07-13T01:10:54;5.93;;;2.85;;
55417;SDS011;41287;47.554;7.844;2023-07-13T01:13:21;9.50;;;3.35;;
55417;SDS011;41287;47.554;7.844;2023-07-13T01:15:48;6.13;;;2.78;;
55417;SDS011;41287;47.554;7.844;2023-07-13T01:18:18;10.88;;;3.70;;
55417;SDS011;41287;47.554;7.844;2023-07-13T01:20:56;9.02;;;2.90;;
55417;SDS011;41287;47.554;7.844;2023-07-13T01:23:23;9.07;;;2.88;;
55417;SDS011;41287;47.554;7.844;2023-07-13T01:25:50;7.57;;;3.28;;
55417;SDS011;41287;47.554;7.844;2023-07-13T01:28:16;7.53;;;2.95;;
55417;SDS011;41287;47.554;7.844;2023-07-13T01:30:42;5.45;;;2.53;;
55417;SDS011;41287;47.554;7.844;2023-07-13T01:33:10;7.50;;;2.47;;
55417;SDS011;41287;47.554;7.844;2023-07-13T01:35:36;5.57;;;2.70;;
55417;SDS011;41287;47.554;7.844;2023-07-13T01:38:01;5.45;;;2.28;;
55417;SDS011;41287;47.554;7.844;2023-07-13T01:40:27;7.82;;;2.38;;
55417;SDS011;41287;47.554;7.844;2023-07-13T01:42:53;8.38;;;2.90;;
55417;SDS011;41287;47.554;7.844;2023-07-13T01:45:22;6.80;;;2.75;;
55417;SDS011;41287;47.554;7.844;2023-07-13T01:47:47;6.05;;;2.63;;
55417;SDS011;41287;47.554;7.844;2023-07-13T01:50:13;4.55;;;2.00;;
55417;SDS011;41287;47.554;7.844;2023-07-13T01:52:38;9.25;;;2.28;;
55417;SDS011;41287;47.554;7.844;2023-07-13T01:55:04;5.55;;;2.03;;
55417;SDS011;41287;47.554;7.844;2023-07-13T01:57:29;7.30;;;2.10;;
55417;SDS011;41287;47.554;7.844;2023-07-13T01:59:55;2.88;;;1.70;;
55417;SDS011;41287;47.554;7.844;2023-07-13T02:02:20;3.90;;;1.85;;
55417;SDS011;41287;47.554;7.844;2023-07-13T02:04:45;7.72;;;2.50;;
55417;SDS011;41287;47.554;7.844;2023-07-13T02:07:21;5.95;;;2.05;;
55417;SDS011;41287;47.554;7.844;2023-07-13T02:09:46;3.92;;;1.75;;
55417;SDS011;41287;47.554;7.844;2023-07-13T02:12:12;6.72;;;2.00;;
55417;SDS011;41287;47.554;7.844;2023-07-13T02:14:37;4.75;;;2.03;;
55417;SDS011;41287;47.554;7.844;2023-07-13T02:17:04;8.52;;;2.10;;
55417;SDS011;41287;47.554;7.844;2023-07-13T02:19:30;4.20;;;2.20;;
55417;SDS011;41287;47.554;7.844;2023-07-13T02:22:02;6.75;;;2.17;;
55417;SDS011;41287;47.554;7.844;2023-07-13T02:24:28;6.20;;;2.35;;
55417;SDS011;41287;47.554;7.844;2023-07-13T02:26:53;4.57;;;2.22;;
55417;SDS011;41287;47.554;7.844;2023-07-13T02:29:18;6.50;;;2.35;;
55417;SDS011;41287;47.554;7.844;2023-07-13T02:31:44;4.80;;;2.00;;
55417;SDS011;41287;47.554;7.844;2023-07-13T02:34:09;5.72;;;2.10;;
55417;SDS011;41287;47.554;7.844;2023-07-13T02:36:34;5.97;;;2.30;;
55417;SDS011;41287;47.554;7.844;2023-07-13T02:39:06;5.03;;;2.08;;
55417;SDS011;41287;47.554;7.844;2023-07-13T02:41:31;5.95;;;2.58;;
55417;SDS011;41287;47.554;7.844;2023-07-13T02:43:57;5.38;;;1.75;;
55417;SDS011;41287;47.554;7.844;2023-07-13T02:46:29;5.72;;;2.03;;
55417;SDS011;41287;47.554;7.844;2023-07-13T02:48:55;6.97;;;2.08;;
55417;SDS011;41287;47.554;7.844;2023-07-13T02:51:21;6.35;;;2.15;;
55417;SDS011;41287;47.554;7.844;2023-07-13T02:53:46;7.25;;;1.95;;
55417;SDS011;41287;47.554;7.844;2023-07-13T02:56:11;5.20;;;1.88;;
55417;SDS011;41287;47.554;7.844;2023-07-13T02:58:37;5.97;;;2.10;;
55417;SDS011;41287;47.554;7.844;2023-07-13T03:01:06;3.72;;;2.03;;
55417;SDS011;41287;47.554;7.844;2023-07-13T03:03:33;6.78;;;2.05;;
55417;SDS011;41287;47.554;7.844;2023-07-13T03:05:59;3.85;;;1.80;;
55417;SDS011;41287;47.554;7.844;2023-07-13T03:08:27;8.75;;;2.35;;
55417;SDS011;41287;47.554;7.844;2023-07-13T03:11:02;6.22;;;2.15;;
55417;SDS011;41287;47.554;7.844;2023-07-13T03:13:30;4.38;;;1.90;;
55417;SDS011;41287;47.554;7.844;2023-07-13T03:15:55;5.28;;;2.10;;
55417;SDS011;41287;47.554;7.844;2023-07-13T03:18:21;6.40;;;2.20;;
55417;SDS011;41287;47.554;7.844;2023-07-13T03:20:49;8.13;;;2.03;;
55417;SDS011;41287;47.554;7.844;2023-07-13T03:23:16;5.68;;;1.77;;
55417;SDS011;41287;47.554;7.844;2023-07-13T03:25:41;6.30;;;2.20;;
55417;SDS011;41287;47.554;7.844;2023-07-13T03:28:10;4.65;;;1.98;;
55417;SDS011;41287;47.554;7.844;2023-07-13T03:30:36;4.53;;;1.98;;
55417;SDS011;41287;47.554;7.844;2023-07-13T03:33:01;5.25;;;1.88;;
55417;SDS011;41287;47.554;7.844;2023-07-13T03:35:31;6.15;;;1.90;;
55417;SDS011;41287;47.554;7.844;2023-07-13T03:37:57;7.22;;;2.15;;
55417;SDS011;41287;47.554;7.844;2023-07-13T03:40:24;5.97;;;2.05;;
55417;SDS011;41287;47.554;7.844;2023-07-13T03:42:50;7.60;;;2.25;;
55417;SDS011;41287;47.554;7.844;2023-07-13T03:45:15;3.20;;;1.80;;
55417;SDS011;41287;47.554;7.844;2023-07-13T03:47:40;5.50;;;2.42;;
55417;SDS011;41287;47.554;7.844;2023-07-13T03:50:06;7.80;;;2.15;;
55417;SDS011;41287;47.554;7.844;2023-07-13T03:52:31;5.78;;;2.03;;
55417;SDS011;41287;47.554;7.844;2023-07-13T03:55:00;6.05;;;1.90;;
55417;SDS011;41287;47.554;7.844;2023-07-13T03:57:26;4.75;;;1.95;;
55417;SDS011;41287;47.554;7.844;2023-07-13T03:59:51;5.78;;;2.00;;
55417;SDS011;41287;47.554;7.844;2023-07-13T04:02:17;6.40;;;2.13;;
55417;SDS011;41287;47.554;7.844;2023-07-13T04:04:42;8.60;;;2.30;;
55417;SDS011;41287;47.554;7.844;2023-07-13T04:07:08;4.07;;;2.28;;
55417;SDS011;41287;47.554;7.844;2023-07-13T04:09:33;6.90;;;2.33;;
55417;SDS011;41287;47.554;7.844;2023-07-13T04:12:01;4.07;;;2.08;;
55417;SDS011;41287;47.554;7.844;2023-07-13T04:14:26;4.90;;;2.05;;
55417;SDS011;41287;47.554;7.844;2023-07-13T04:16:52;5.10;;;1.90;;
55417;SDS011;41287;47.554;7.844;2023-07-13T04:19:19;5.30;;;1.98;;
55417;SDS011;41287;47.554;7.844;2023-07-13T04:21:46;6.40;;;2.35;;
55417;SDS011;41287;47.554;7.844;2023-07-13T04:24:12;4.53;;;2.08;;
55417;SDS011;41287;47.554;7.844;2023-07-13T04:26:37;5.22;;;2.08;;
55417;SDS011;41287;47.554;7.844;2023-07-13T04:29:03;7.63;;;2.45;;
55417;SDS011;41287;47.554;7.844;2023-07-13T04:31:29;5.28;;;2.22;;
55417;SDS011;41287;47.554;7.844;2023-07-13T04:33:55;4.80;;;2.00;;
55417;SDS011;41287;47.554;7.844;2023-07-13T04:36:20;7.55;;;2.40;;
55417;SDS011;41287;47.554;7.844;2023-07-13T04:38:45;4.82;;;2.17;;
55417;SDS011;41287;47.554;7.844;2023-07-13T04:41:11;4.80;;;1.90;;
55417;SDS011;41287;47.554;7.844;2023-07-13T04:43:37;6.10;;;2.00;;
55417;SDS011;41287;47.554;7.844;2023-07-13T04:46:07;2.95;;;1.77;;
55417;SDS011;41287;47.554;7.844;2023-07-13T04:48:34;5.72;;;1.65;;
55417;SDS011;41287;47.554;7.844;2023-07-13T04:51:00;8.63;;;2.30;;
55417;SDS011;41287;47.554;7.844;2023-07-13T04:53:26;4.57;;;1.85;;
55417;SDS011;41287;47.554;7.844;2023-07-13T04:55:52;3.22;;;1.98;;
55417;SDS011;41287;47.554;7.844;2023-07-13T04:58:22;4.60;;;2.08;;
55417;SDS011;41287;47.554;7.844;2023-07-13T05:00:48;5.72;;;2.75;;
55417;SDS011;41287;47.554;7.844;2023-07-13T05:03:14;5.55;;;2.40;;
55417;SDS011;41287;47.554;7.844;2023-07-13T05:05:39;4.85;;;2.03;;
55417;SDS011;41287;47.554;7.844;2023-07-13T05:08:04;5.45;;;2.13;;
55417;SDS011;41287;47.554;7.844;2023-07-13T05:10:30;3.05;;;1.77;;
55417;SDS011;41287;47.554;7.844;2023-07-13T05:13:00;3.72;;;1.98;;
55417;SDS011;41287;47.554;7.844;2023-07-13T05:15:26;3.60;;;2.10;;
55417;SDS011;41287;47.554;7.844;2023-07-13T05:17:52;6.32;;;2.10;;
55417;SDS011;41287;47.554;7.844;2023-07-13T05:20:18;4.13;;;2.08;;
55417;SDS011;41287;47.554;7.844;2023-07-13T05:22:44;4.57;;;2.17;;
55417;SDS011;41287;47.554;7.844;2023-07-13T05:25:12;4.75;;;2.00;;
55417;SDS011;41287;47.554;7.844;2023-07-13T05:27:38;5.15;;;1.98;;
55417;SDS011;41287;47.554;7.844;2023-07-13T05:30:03;5.13;;;2.15;;
55417;SDS011;41287;47.554;7.844;2023-07-13T05:32:29;5.70;;;2.10;;
55417;SDS011;41287;47.554;7.844;2023-07-13T05:34:55;2.70;;;1.60;;
55417;SDS011;41287;47.554;7.844;2023-07-13T05:37:20;5.47;;;2.30;;
55417;SDS011;41287;47.554;7.844;2023-07-13T05:39:45;4.43;;;1.77;;
55417;SDS011;41287;47.554;7.844;2023-07-13T05:42:11;6.05;;;1.85;;
55417;SDS011;41287;47.554;7.844;2023-07-13T05:44:36;3.65;;;1.85;;
55417;SDS011;41287;47.554;7.844;2023-07-13T05:47:02;3.05;;;1.90;;
55417;SDS011;41287;47.554;7.844;2023-07-13T05:49:27;3.40;;;1.95;;
55417;SDS011;41287;47.554;7.844;2023-07-13T05:51:53;3.13;;;1.75;;
55417;SDS011;41287;47.554;7.844;2023-07-13T05:54:18;2.70;;;1.58;;
55417;SDS011;41287;47.554;7.844;2023-07-13T05:56:44;4.53;;;1.83;;
55417;SDS011;41287;47.554;7.844;2023-07-13T05:59:09;3.72;;;2.00;;
55417;SDS011;41287;47.554;7.844;2023-07-13T06:01:34;4.82;;;1.95;;
55417;SDS011;41287;47.554;7.844;2023-07-13T06:04:00;2.97;;;1.52;;
55417;SDS011;41287;47.554;7.844;2023-07-13T06:06:25;3.80;;;1.80;;
55417;SDS011;41287;47.554;7.844;2023-07-13T06:08:51;2.15;;;1.60;;
55417;SDS011;41287;47.554;7.844;2023-07-13T06:11:21;3.33;;;2.05;;
55417;SDS011;41287;47.554;7.844;2023-07-13T06:13:48;4.75;;;2.13;;
55417;SDS011;41287;47.554;7.844;2023-07-13T06:16:19;3.22;;;1.58;;
55417;SDS011;41287;47.554;7.844;2023-07-13T06:18:44;3.00;;;1.88;;
55417;SDS011;41287;47.554;7.844;2023-07-13T06:21:12;3.13;;;1.80;;
55417;SDS011;41287;47.554;7.844;2023-07-13T06:23:39;4.72;;;1.90;;
55417;SDS011;41287;47.554;7.844;2023-07-13T06:26:07;3.28;;;1.70;;
55417;SDS011;41287;47.554;7.844;2023-07-13T06:28:34;3.33;;;1.80;;
55417;SDS011;41287;47.554;7.844;2023-07-13T06:31:00;2.92;;;1.75;;
55417;SDS011;41287;47.554;7.844;2023-07-13T06:33:25;2.42;;;1.52;;
55417;SDS011;41287;47.554;7.844;2023-07-13T06:35:51;4.13;;;1.67;;
55417;SDS011;41287;47.554;7.844;2023-07-13T06:38:18;4.13;;;1.80;;
55417;SDS011;41287;47.554;7.844;2023-07-13T06:40:43;3.65;;;1.77;;
55417;SDS011;41287;47.554;7.844;2023-07-13T06:43:08;4.60;;;1.95;;
55417;SDS011;41287;47.554;7.844;2023-07-13T06:45:41;3.55;;;1.70;;
55417;SDS011;41287;47.554;7.844;2023-07-13T06:48:12;5.50;;;1.88;;
55417;SDS011;41287;47.554;7.844;2023-07-13T06:50:38;2.55;;;1.80;;
55417;SDS011;41287;47.554;7.844;2023-07-13T06:53:03;3.08;;;1.80;;
55417;SDS011;41287;47.554;7.844;2023-07-13T06:55:28;4.07;;;1.73;;
55417;SDS011;41287;47.554;7.844;2023-07-13T06:57:53;3.92;;;1.60;;
55417;SDS011;41287;47.554;7.844;2023-07-13T07:00:19;4.15;;;1.75;;
55417;SDS011;41287;47.554;7.844;2023-07-13T07:02:44;3.22;;;1.67;;
55417;SDS011;41287;47.554;7.844;2023-07-13T07:05:10;3.45;;;1.70;;
55417;SDS011;41287;47.554;7.844;2023-07-13T07:07:35;2.67;;;1.70;;
55417;SDS011;41287;47.554;7.844;2023-07-13T07:10:00;3.30;;;1.70;;
55417;SDS011;41287;47.554;7.844;2023-07-13T07:12:30;2.88;;;1.65;;
55417;SDS011;41287;47.554;7.844;2023-07-13T07:14:55;3.28;;;1.60;;
55417;SDS011;41287;47.554;7.844;2023-07-13T07:17:21;3.72;;;1.60;;
55417;SDS011;41287;47.554;7.844;2023-07-13T07:19:46;2.40;;;1.63;;
55417;SDS011;41287;47.554;7.844;2023-07-13T07:22:11;3.38;;;1.90;;
55417;SDS011;41287;47.554;7.844;2023-07-13T07:24:37;3.50;;;1.75;;
55417;SDS011;41287;47.554;7.844;2023-07-13T07:27:04;2.80;;;1.67;;
55417;SDS011;41287;47.554;7.844;2023-07-13T07:29:30;3.28;;;2.00;;
55417;SDS011;41287;47.554;7.844;2023-07-13T07:31:55;3.22;;;1.55;;
55417;SDS011;41287;47.554;7.844;2023-07-13T07:34:20;2.67;;;1.80;;
55417;SDS011;41287;47.554;7.844;2023-07-13T07:36:46;2.00;;;1.50;;
55417;SDS011;41287;47.554;7.844;2023-07-13T07:39:11;3.20;;;1.85;;
55417;SDS011;41287;47.554;7.844;2023-07-13T07:41:37;2.25;;;1.60;;
55417;SDS011;41287;47.554;7.844;2023-07-13T07:44:03;2.83;;;1.45;;
55417;SDS011;41287;47.554;7.844;2023-07-13T07:46:28;3.05;;;1.45;;
55417;SDS011;41287;47.554;7.844;2023-07-13T07:48:55;2.05;;;1.20;;
55417;SDS011;41287;47.554;7.844;2023-07-13T07:51:20;3.30;;;1.42;;
55417;SDS011;41287;47.554;7.844;2023-07-13T07:53:46;3.50;;;1.70;;
55417;SDS011;41287;47.554;7.844;2023-07-13T07:56:12;2.55;;;1.55;;
55417;SDS011;41287;47.554;7.844;2023-07-13T07:58:37;2.17;;;1.30;;
55417;SDS011;41287;47.554;7.844;2023-07-13T08:01:06;3.38;;;1.58;;
55417;SDS011;41287;47.554;7.844;2023-07-13T08:03:31;2.25;;;1.60;;
55417;SDS011;41287;47.554;7.844;2023-07-13T08:05:57;3.17;;;1.85;;
55417;SDS011;41287;47.554;7.844;2023-07-13T08:08:23;2.30;;;1.52;;
55417;SDS011;41287;47.554;7.844;2023-07-13T08:10:48;2.67;;;1.60;;
55417;SDS011;41287;47.554;7.844;2023-07-13T08:13:14;2.38;;;1.70;;
55417;SDS011;41287;47.554;7.844;2023-07-13T08:15:39;2.25;;;1.50;;
55417;SDS011;41287;47.554;7.844;2023-07-13T08:18:05;1.90;;;1.50;;
55417;SDS011;41287;47.554;7.844;2023-07-13T08:20:31;2.08;;;1.55;;
55417;SDS011;41287;47.554;7.844;2023-07-13T08:22:56;2.80;;;1.50;;
55417;SDS011;41287;47.554;7.844;2023-07-13T08:25:22;1.67;;;1.27;;
55417;SDS011;41287;47.554;7.844;2023-07-13T08:27:48;2.67;;;1.50;;
55417;SDS011;41287;47.554;7.844;2023-07-13T08:30:13;2.33;;;1.48;;
55417;SDS011;41287;47.554;7.844;2023-07-13T08:32:38;3.05;;;2.00;;
55417;SDS011;41287;47.554;7.844;2023-07-13T08:35:04;3.17;;;1.77;;
55417;SDS011;41287;47.554;7.844;2023-07-13T08:37:30;1.95;;;1.45;;
55417;SDS011;41287;47.554;7.844;2023-07-13T08:39:55;2.20;;;1.40;;
55417;SDS011;41287;47.554;7.844;2023-07-13T08:42:31;2.63;;;1.88;;
55417;SDS011;41287;47.554;7.844;2023-07-13T08:45:20;2.33;;;1.52;;
55417;SDS011;41287;47.554;7.844;2023-07-13T08:47:52;1.55;;;1.15;;
55417;SDS011;41287;47.554;7.844;2023-07-13T08:50:23;2.77;;;1.70;;
55417;SDS011;41287;47.554;7.844;2023-07-13T08:52:53;2.13;;;1.30;;
55417;SDS011;41287;47.554;7.844;2023-07-13T08:55:21;3.17;;;1.60;;
55417;SDS011;41287;47.554;7.844;2023-07-13T08:58:04;2.38;;;1.25;;
55417;SDS011;41287;47.554;7.844;2023-07-13T09:00:55;2.33;;;1.40;;
55417;SDS011;41287;47.554;7.844;2023-07-13T09:03:36;2.08;;;1.60;;
55417;SDS011;41287;47.554;7.844;2023-07-13T09:06:11;2.45;;;1.52;;
55417;SDS011;41287;47.554;7.844;2023-07-13T09:11:20;2.20;;;1.27;;
55417;SDS011;41287;47.554;7.844;2023-07-13T09:14:05;2.25;;;1.52;;
55417;SDS011;41287;47.554;7.844;2023-07-13T09:16:44;1.80;;;1.30;;
55417;SDS011;41287;47.554;7.844;2023-07-13T09:19:20;3.05;;;1.40;;
55417;SDS011;41287;47.554;7.844;2023-07-13T09:21:51;2.67;;;1.30;;
55417;SDS011;41287;47.554;7.844;2023-07-13T09:27:31;2.10;;;1.30;;
55417;SDS011;41287;47.554;7.844;2023-07-13T09:33:05;2.45;;;1.52;;
55417;SDS011;41287;47.554;7.844;2023-07-13T09:35:30;1.95;;;1.30;;
55417;SDS011;41287;47.554;7.844;2023-07-13T09:38:04;2.17;;;1.40;;
55417;SDS011;41287;47.554;7.844;2023-07-13T09:43:17;2.30;;;1.35;;
55417;SDS011;41287;47.554;7.844;2023-07-13T09:45:45;2.35;;;1.40;;
55417;SDS011;41287;47.554;7.844;2023-07-13T09:48:13;2.47;;;1.30;;
55417;SDS011;41287;47.554;7.844;2023-07-13T09:50:40;2.00;;;1.40;;
55417;SDS011;41287;47.554;7.844;2023-07-13T09:53:16;1.83;;;1.10;;
55417;SDS011;41287;47.554;7.844;2023-07-13T09:55:44;3.10;;;1.30;;
55417;SDS011;41287;47.554;7.844;2023-07-13T09:58:13;1.92;;;1.30;;
55417;SDS011;41287;47.554;7.844;2023-07-13T10:00:41;2.47;;;1.50;;
55417;SDS011;41287;47.554;7.844;2023-07-13T10:03:19;1.50;;;1.20;;
55417;SDS011;41287;47.554;7.844;2023-07-13T10:05:47;1.92;;;1.20;;
55417;SDS011;41287;47.554;7.844;2023-07-13T10:08:28;2.40;;;1.42;;
55417;SDS011;41287;47.554;7.844;2023-07-13T10:10:59;2.05;;;1.05;;
55417;SDS011;41287;47.554;7.844;2023-07-13T10:13:32;1.45;;;1.17;;
55417;SDS011;41287;47.554;7.844;2023-07-13T10:16:01;2.28;;;1.55;;
55417;SDS011;41287;47.554;7.844;2023-07-13T10:18:34;1.63;;;1.10;;
55417;SDS011;41287;47.554;7.844;2023-07-13T10:21:26;1.40;;;1.13;;
55417;SDS011;41287;47.554;7.844;2023-07-13T10:24:04;1.95;;;1.30;;
55417;SDS011;41287;47.554;7.844;2023-07-13T10:26:46;2.85;;;1.42;;
55417;SDS011;41287;47.554;7.844;2023-07-13T10:29:17;2.35;;;1.33;;
55417;SDS011;41287;47.554;7.844;2023-07-13T10:31:46;1.65;;;1.10;;
55417;SDS011;41287;47.554;7.844;2023-07-13T10:34:15;2.00;;;1.30;;
55417;SDS011;41287;47.554;7.844;2023-07-13T10:36:42;1.48;;;1.15;;
55417;SDS011;41287;47.554;7.844;2023-07-13T10:39:26;2.45;;;1.13;;
55417;SDS011;41287;47.554;7.844;2023-07-13T10:41:54;1.35;;;1.00;;
55417;SDS011;41287;47.554;7.844;2023-07-13T10:44:24;1.80;;;1.40;;
55417;SDS011;41287;47.554;7.844;2023-07-13T10:46:54;2.13;;;1.30;;
55417;SDS011;41287;47.554;7.844;2023-07-13T10:49:20;2.03;;;1.10;;
55417;SDS011;41287;47.554;7.844;2023-07-13T10:51:47;2.33;;;1.23;;
55417;SDS011;41287;47.554;7.844;2023-07-13T10:54:20;1.63;;;1.20;;
55417;SDS011;41287;47.554;7.844;2023-07-13T10:56:49;2.88;;;1.65;;
55417;SDS011;41287;47.554;7.844;2023-07-13T10:59:24;1.88;;;1.10;;
55417;SDS011;41287;47.554;7.844;2023-07-13T11:04:23;1.92;;;1.23;;
55417;SDS011;41287;47.554;7.844;2023-07-13T11:06:53;1.58;;;1.15;;
55417;SDS011;41287;47.554;7.844;2023-07-13T11:09:32;1.30;;;1.10;;
55417;SDS011;41287;47.554;7.844;2023-07-13T11:12:02;1.73;;;1.05;;
55417;SDS011;41287;47.554;7.844;2023-07-13T11:14:37;2.70;;;1.25;;
55417;SDS011;41287;47.554;7.844;2023-07-13T11:17:46;1.75;;;1.10;;
55417;SDS011;41287;47.554;7.844;2023-07-13T11:22:48;2.20;;;1.37;;
55417;SDS011;41287;47.554;7.844;2023-07-13T11:25:37;2.00;;;1.35;;
55417;SDS011;41287;47.554;7.844;2023-07-13T11:33:19;1.75;;;1.30;;
55417;SDS011;41287;47.554;7.844;2023-07-13T11:36:13;2.03;;;1.02;;
55417;SDS011;41287;47.554;7.844;2023-07-13T11:41:15;1.67;;;1.23;;
55417;SDS011;41287;47.554;7.844;2023-07-13T11:43:44;1.70;;;1.20;;
55417;SDS011;41287;47.554;7.844;2023-07-13T11:46:19;1.63;;;1.17;;
55417;SDS011;41287;47.554;7.844;2023-07-13T11:48:47;2.05;;;1.30;;
55417;SDS011;41287;47.554;7.844;2023-07-13T11:51:32;1.52;;;1.17;;
55417;SDS011;41287;47.554;7.844;2023-07-13T11:54:01;1.45;;;1.13;;
55417;SDS011;41287;47.554;7.844;2023-07-13T11:56:29;1.67;;;1.27;;
55417;SDS011;41287;47.554;7.844;2023-07-13T11:58:57;1.52;;;1.20;;
55417;SDS011;41287;47.554;7.844;2023-07-13T12:01:29;1.80;;;1.27;;
55417;SDS011;41287;47.554;7.844;2023-07-13T12:03:58;1.20;;;0.90;;
55417;SDS011;41287;47.554;7.844;2023-07-13T12:06:29;1.20;;;0.85;;
55417;SDS011;41287;47.554;7.844;2023-07-13T12:09:02;1.87;;;1.33;;
55417;SDS011;41287;47.554;7.844;2023-07-13T12:11:40;1.23;;;1.00;;
55417;SDS011;41287;47.554;7.844;2023-07-13T12:14:17;2.08;;;1.08;;
55417;SDS011;41287;47.554;7.844;2023-07-13T12:16:44;2.30;;;1.45;;
55417;SDS011;41287;47.554;7.844;2023-07-13T12:21:44;1.52;;;1.10;;
55417;SDS011;41287;47.554;7.844;2023-07-13T12:24:17;1.35;;;0.90;;
55417;SDS011;41287;47.554;7.844;2023-07-13T12:26:48;1.67;;;1.15;;
55417;SDS011;41287;47.554;7.844;2023-07-13T12:29:20;1.35;;;1.10;;
55417;SDS011;41287;47.554;7.844;2023-07-13T12:31:47;1.67;;;0.90;;
55417;SDS011;41287;47.554;7.844;2023-07-13T12:34:18;0.80;;;0.73;;
55417;SDS011;41287;47.554;7.844;2023-07-13T12:36:52;2.28;;;1.23;;
55417;SDS011;41287;47.554;7.844;2023-07-13T12:39:32;1.75;;;0.90;;
55417;SDS011;41287;47.554;7.844;2023-07-13T12:44:57;1.63;;;1.20;;
55417;SDS011;41287;47.554;7.844;2023-07-13T12:47:25;1.83;;;1.20;;
55417;SDS011;41287;47.554;7.844;2023-07-13T12:49:58;1.10;;;0.95;;
55417;SDS011;41287;47.554;7.844;2023-07-13T12:52:30;1.50;;;1.00;;
55417;SDS011;41287;47.554;7.844;2023-07-13T12:55:08;1.63;;;1.00;;
55417;SDS011;41287;47.554;7.844;2023-07-13T12:58:03;1.13;;;0.90;;
55417;SDS011;41287;47.554;7.844;2023-07-13T13:03:02;1.20;;;0.93;;
55417;SDS011;41287;47.554;7.844;2023-07-13T13:05:31;1.00;;;0.80;;
55417;SDS011;41287;47.554;7.844;2023-07-13T13:07:58;1.13;;;0.93;;
55417;SDS011;41287;47.554;7.844;2023-07-13T13:10:23;1.70;;;1.08;;
55417;SDS011;41287;47.554;7.844;2023-07-13T13:12:49;1.27;;;1.00;;
55417;SDS011;41287;47.554;7.844;2023-07-13T13:15:15;1.52;;;1.00;;
55417;SDS011;41287;47.554;7.844;2023-07-13T13:17:41;2.55;;;1.00;;
55417;SDS011;41287;47.554;7.844;2023-07-13T13:22:41;1.65;;;1.23;;
55417;SDS011;41287;47.554;7.844;2023-07-13T13:25:08;2.03;;;1.15;;
55417;SDS011;41287;47.554;7.844;2023-07-13T13:27:35;1.65;;;1.20;;
55417;SDS011;41287;47.554;7.844;2023-07-13T13:30:10;1.70;;;0.90;;
55417;SDS011;41287;47.554;7.844;2023-07-13T13:32:38;1.25;;;0.82;;
55417;SDS011;41287;47.554;7.844;2023-07-13T13:35:04;1.83;;;1.23;;
55417;SDS011;41287;47.554;7.844;2023-07-13T13:37:31;1.05;;;0.80;;
55417;SDS011;41287;47.554;7.844;2023-07-13T13:39:56;1.30;;;0.85;;
55417;SDS011;41287;47.554;7.844;2023-07-13T13:42:23;2.17;;;0.98;;
55417;SDS011;41287;47.554;7.844;2023-07-13T13:44:50;1.38;;;0.80;;
55417;SDS011;41287;47.554;7.844;2023-07-13T13:47:27;2.17;;;1.08;;
55417;SDS011;41287;47.554;7.844;2023-07-13T13:49:57;2.08;;;1.33;;
55417;SDS011;41287;47.554;7.844;2023-07-13T13:52:23;1.00;;;0.85;;
55417;SDS011;41287;47.554;7.844;2023-07-13T13:54:51;1.67;;;1.10;;
55417;SDS011;41287;47.554;7.844;2023-07-13T13:57:20;1.40;;;1.00;;
55417;SDS011;41287;47.554;7.844;2023-07-13T13:59:49;1.27;;;0.93;;
55417;SDS011;41287;47.554;7.844;2023-07-13T14:02:25;1.42;;;1.05;;
55417;SDS011;41287;47.554;7.844;2023-07-13T14:04:57;1.45;;;1.00;;
55417;SDS011;41287;47.554;7.844;2023-07-13T14:07:24;1.77;;;1.08;;
55417;SDS011;41287;47.554;7.844;2023-07-13T14:09:51;1.17;;;0.90;;
55417;SDS011;41287;47.554;7.844;2023-07-13T14:12:20;1.58;;;1.02;;
55417;SDS011;41287;47.554;7.844;2023-07-13T14:14:46;1.75;;;1.00;;
55417;SDS011;41287;47.554;7.844;2023-07-13T14:17:16;1.80;;;1.10;;
55417;SDS011;41287;47.554;7.844;2023-07-13T14:19:46;0.90;;;0.73;;
55417;SDS011;41287;47.554;7.844;2023-07-13T14:22:15;1.42;;;0.93;;
55417;SDS011;41287;47.554;7.844;2023-07-13T14:24:45;0.90;;;0.80;;
55417;SDS011;41287;47.554;7.844;2023-07-13T14:27:11;1.60;;;1.10;;
55417;SDS011;41287;47.554;7.844;2023-07-13T14:29:38;1.50;;;1.13;;
55417;SDS011;41287;47.554;7.844;2023-07-13T14:32:03;1.02;;;0.85;;
55417;SDS011;41287;47.554;7.844;2023-07-13T14:34:30;1.92;;;1.23;;
55417;SDS011;41287;47.554;7.844;2023-07-13T14:36:55;1.10;;;0.80;;
55417;SDS011;41287;47.554;7.844;2023-07-13T14:39:22;1.45;;;1.00;;
55417;SDS011;41287;47.554;7.844;2023-07-13T14:41:50;1.48;;;0.95;;
55417;SDS011;41287;47.554;7.844;2023-07-13T14:44:17;1.17;;;0.93;;
55417;SDS011;41287;47.554;7.844;2023-07-13T14:46:45;1.17;;;0.98;;
55417;SDS011;41287;47.554;7.844;2023-07-13T14:49:16;1.25;;;0.93;;
55417;SDS011;41287;47.554;7.844;2023-07-13T14:51:48;1.08;;;0.88;;
55417;SDS011;41287;47.554;7.844;2023-07-13T14:54:14;1.17;;;0.90;;
55417;SDS011;41287;47.554;7.844;2023-07-13T14:56:39;1.40;;;1.05;;
55417;SDS011;41287;47.554;7.844;2023-07-13T14:59:05;1.50;;;0.95;;
55417;SDS011;41287;47.554;7.844;2023-07-13T15:01:31;1.00;;;0.90;;
55417;SDS011;41287;47.554;7.844;2023-07-13T15:03:57;1.40;;;0.90;;
55417;SDS011;41287;47.554;7.844;2023-07-13T15:06:23;1.13;;;0.77;;
55417;SDS011;41287;47.554;7.844;2023-07-13T15:08:48;1.00;;;0.75;;
55417;SDS011;41287;47.554;7.844;2023-07-13T15:11:14;1.75;;;0.70;;
55417;SDS011;41287;47.554;7.844;2023-07-13T15:13:40;1.83;;;1.20;;
55417;SDS011;41287;47.554;7.844;2023-07-13T15:19:01;1.17;;;0.93;;
55417;SDS011;41287;47.554;7.844;2023-07-13T15:21:27;2.58;;;1.05;;
55417;SDS011;41287;47.554;7.844;2023-07-13T15:23:59;1.60;;;0.80;;
55417;SDS011;41287;47.554;7.844;2023-07-13T15:26:25;1.00;;;0.80;;
55417;SDS011;41287;47.554;7.844;2023-07-13T15:28:52;0.80;;;0.70;;
55417;SDS011;41287;47.554;7.844;2023-07-13T15:31:19;1.13;;;0.77;;
55417;SDS011;41287;47.554;7.844;2023-07-13T15:33:50;1.10;;;0.93;;